Aviation Digital Data Service (ADDS)

Output produced by METARs form (2216 UTC 22 July 2018)
found at http://bcaws.aviationweather.gov/adds/metars/
 
METAR text: KRHV 222147Z 34012KT 10SM FEW180 29/16 A3003
Conditions at: KRHV (SAN JOSE/REID , CA, US) observed 2147 UTC 22 July 2018
Temperature: 29.0°C (84°F)
Dewpoint: 16.0°C (61°F) [RH = 45%]
Pressure (altimeter): 30.03 inches Hg (1017.0 mb)
Winds: from the NNW (340 degrees) at 14 MPH (12 knots; 6.2 m/s)
Visibility: 10 or more miles (16+ km)
Ceiling: at least 12,000 feet AGL
Clouds: few clouds at 18000 feet AGL
Weather: no significant weather observed at this time